Huvudsida
METAR-TAF:

METAR-TAF

Flygplatser :

King Mswati III International Airport

Manzini, Swaziland

latitud: 26-21-24S, longitud: 031-43-01E, höjd: 324 m

Aktuellt väderrapport

Denna rapport gjordes för 3 timmar och 57 minuter sedan, klockan 18:00 UTC
Vind 7 kt från nordost, varierande mellan nord och ost/nordost
Temperatur 25°C
Fuktighet 74%
Tryck 1014 hPa
Sikt 10 km eller mer
Inga moln under 1 500 m eller inga cumulonimbus

METAR: FDSK 221800Z 05007KT 010V070 CAVOK 25/20 Q1014 NOSIG

Tid: 23:57 (21:57 UTC)

Väderprognos

Denna rapport gjordes för 11 timmar och 57 minuter sedan, klockan 10:00 UTC
Prognos gäller från 22 kl. 12 UTC till 22 kl. 18 UTC
Vind 9 kt från nord/nordost
Sikt 10 km eller mer
Spridda moln på en höjd av 3500 ft

TAF: FDSK 221000Z 2212/2218 02009KT 9999 SCT035

Aktuella väderrapporter och prognoser från 4000 flygplatser (METAR- och TAF-rapporter).

De tillgängliga stationerna syns som gula och röda prickar på kartan.

För musen över prickarna för att se namnen på stationerna.

Klicka sedan för att få väderrapporter och prognoser.

För att ändra kartan: Klicka på de gröna knapparna med ett svart kors på för att zooma in; den gröna knappen med ett streck på för att zooma ut; eller på de gröna pilarna för angränsande kartor.


METAR-TAF: